createdAt,value
2017-09-19T00:03:11.407Z,25
2017-09-19T00:13:11.315Z,25
2017-09-19T00:23:11.390Z,24
2017-09-19T00:33:11.280Z,28
2017-09-19T00:43:11.259Z,27
2017-09-19T00:53:12.546Z,30
2017-09-19T01:03:11.284Z,32
2017-09-19T01:13:11.440Z,39
2017-09-19T01:23:11.310Z,37
2017-09-19T01:33:11.293Z,39
2017-09-19T01:43:11.423Z,41
2017-09-19T01:53:11.289Z,44
2017-09-19T02:03:11.295Z,43
2017-09-19T02:13:11.265Z,41
2017-09-19T02:23:11.366Z,39
2017-09-19T02:33:11.264Z,42
2017-09-19T02:43:11.331Z,36
2017-09-19T02:53:11.321Z,38
2017-09-19T03:03:11.414Z,33
2017-09-19T03:13:11.293Z,36
2017-09-19T03:23:11.277Z,33
2017-09-19T03:33:11.274Z,37
2017-09-19T03:43:11.314Z,28
2017-09-19T03:53:24.115Z,28
2017-09-19T04:03:11.290Z,30
2017-09-19T04:13:11.923Z,32
2017-09-19T04:23:11.604Z,39
2017-09-19T04:33:12.013Z,37
2017-09-19T04:43:11.286Z,34
2017-09-19T04:53:11.258Z,32
2017-09-19T05:03:11.337Z,40
2017-09-19T05:13:12.381Z,35
2017-09-19T05:23:11.345Z,36
2017-09-19T05:33:11.259Z,30
2017-09-19T05:43:11.360Z,28
2017-09-19T05:53:11.244Z,34
2017-09-19T06:03:11.350Z,29
2017-09-19T06:13:11.302Z,30
2017-09-19T06:23:11.280Z,29
2017-09-19T06:33:11.361Z,27
2017-09-19T06:43:11.275Z,31
2017-09-19T06:53:11.289Z,27
2017-09-19T07:03:11.332Z,29
2017-09-19T07:13:11.242Z,26
2017-09-19T07:23:11.374Z,26
2017-09-19T07:33:11.260Z,27
2017-09-19T07:43:11.353Z,24
2017-09-19T07:53:11.261Z,22
2017-09-19T08:03:11.302Z,21
2017-09-19T08:13:11.515Z,18
2017-09-19T08:23:11.277Z,18
2017-09-19T08:33:11.659Z,17
2017-09-19T08:43:11.350Z,15
2017-09-19T08:53:14.365Z,15
2017-09-19T09:03:13.086Z,14
2017-09-19T09:13:11.426Z,12
2017-09-19T09:23:11.306Z,12
2017-09-19T09:33:11.913Z,14
2017-09-19T09:43:11.523Z,14
2017-09-19T09:53:11.659Z,14
2017-09-19T10:03:11.633Z,14
2017-09-19T10:13:11.319Z,14
2017-09-19T10:23:11.280Z,15
2017-09-19T10:33:11.391Z,13
2017-09-19T10:43:11.378Z,13
2017-09-19T10:53:11.372Z,12
2017-09-19T11:03:11.301Z,11
2017-09-19T11:13:11.282Z,10
2017-09-19T11:23:11.547Z,10
2017-09-19T11:33:11.385Z,12
2017-09-19T11:43:11.600Z,12
2017-09-19T11:53:11.437Z,17
2017-09-19T12:03:11.389Z,12
2017-09-19T12:13:11.715Z,13
2017-09-19T12:23:11.978Z,14
2017-09-19T12:33:11.353Z,13
2017-09-19T12:43:11.425Z,14
2017-09-19T12:53:11.375Z,13
2017-09-19T13:03:11.554Z,15
2017-09-19T13:13:11.462Z,16
2017-09-19T13:23:11.478Z,13
2017-09-19T13:33:11.549Z,14
2017-09-19T13:43:11.506Z,13
2017-09-19T13:53:11.588Z,13
2017-09-19T14:03:11.424Z,14
2017-09-19T14:13:12.471Z,14
2017-09-19T14:23:22.108Z,14
2017-09-19T14:33:11.375Z,14
2017-09-19T14:43:11.449Z,15
2017-09-19T14:53:11.344Z,13
2017-09-19T15:03:11.567Z,14
2017-09-19T15:13:11.451Z,14
2017-09-19T15:23:11.427Z,13
2017-09-19T15:33:11.399Z,16
2017-09-19T15:43:11.585Z,17
2017-09-19T15:53:11.365Z,19
2017-09-19T16:03:11.393Z,18
2017-09-19T16:13:11.413Z,17
2017-09-19T16:23:11.685Z,20
2017-09-19T16:33:11.824Z,21
2017-09-19T16:43:11.497Z,20
2017-09-19T16:53:11.522Z,19
2017-09-19T17:03:11.395Z,20
2017-09-19T17:13:11.504Z,22
2017-09-19T17:23:11.308Z,22
2017-09-19T17:33:11.388Z,25
2017-09-19T17:43:11.630Z,25
2017-09-19T17:53:11.404Z,25
2017-09-19T18:03:11.528Z,26
2017-09-19T18:13:11.492Z,31
2017-09-19T18:23:11.394Z,25
2017-09-19T18:33:12.114Z,26
2017-09-19T18:43:11.456Z,25
2017-09-19T18:53:11.537Z,26
2017-09-19T19:03:11.359Z,28
2017-09-19T19:13:11.491Z,26
2017-09-19T19:23:11.436Z,26
2017-09-19T19:33:12.152Z,25
2017-09-19T19:43:12.061Z,26
2017-09-19T19:53:11.327Z,29
2017-09-19T20:03:16.638Z,32
2017-09-19T20:13:11.519Z,28
2017-09-19T20:23:11.858Z,27
2017-09-19T20:33:19.758Z,22
2017-09-19T20:43:12.348Z,26
2017-09-19T20:53:11.471Z,27
2017-09-19T21:03:11.783Z,29
2017-09-19T21:13:11.562Z,28
2017-09-19T21:23:11.700Z,30
2017-09-19T21:33:12.137Z,31
2017-09-19T21:43:11.370Z,34
2017-09-19T21:53:11.410Z,40
2017-09-19T22:03:31.825Z,41
2017-09-19T22:13:11.390Z,37
2017-09-19T22:23:11.467Z,38
2017-09-19T22:33:11.389Z,39
2017-09-19T22:43:11.311Z,36
2017-09-19T22:53:11.438Z,38
2017-09-19T23:03:11.340Z,40
2017-09-19T23:13:11.387Z,44
2017-09-19T23:23:12.001Z,43
2017-09-19T23:33:11.324Z,49
2017-09-19T23:43:11.447Z,50
2017-09-19T23:53:11.375Z,43
